Skip Navigation Links
NOAA logo - Click to go to the NOAA homepage
NOAA's National Weather Service
Alaska Aviation Weather Unit
  NWS logo - Click to go to the NWS homepage
Left Navbar Graphic     01 AKDT = 09 GMT

   
NOAA is celebrating 200 years of science, service, and stewardship. Visit the NOAA 200th celebration Web site to learn more.
USA.gov is the U.S. Government's official Web portal to all Federal, state and local government Web resources and services.
Facebook
NWS on Facebook

Important Change Regarding the AAWU Web Presence

 

Over the last several months, the AAWU has been working to navigate its webpages to a nationally supported server. Security, as well as other needs, have necessitated the change.  We have been given an extension for the site changeover while we diligently work at addressing feedback received. As of July 14, 2017, aawu.arh.noaa.gov will be discontinued. The new AAWU web address is weather.gov/aawu. It is now live and will run in-parallel with the old site until it is discontinued on July 14, 2017. Please continue to send any feedback or questions regarding the new webpages to nws.ar.aawu.webauthors@noaa.gov.  Thank you for your patience during this time of transition.
AAWU Home :: Display TAF Add Bookmark
TAF PATA 190522Z 1906/2006  25006KT P6SM VCSH FEW060 SCT070 OVC090
     FM191600 29002KT 4SM -SHRA BR BKN007 OVC015
     FM191900 27003KT P6SM -SHRA BKN015 OVC025
     FM192000 VRB03KT P6SM VCSH OVC050=

7208
FTAK31 PAFA 190522
TAFAOM
TAF
METAR PATA 190352Z 27007KT 10SM BKN060 12/07 A2966 RMK AO2 SLP046
     T01170067=

METAR PATA 190452Z 25006KT 10SM FEW060 SCT070 OVC085 11/06 A2967 RMK
 AO2 SLP049 T01110061=

METAR PATA 190552Z AUTO VRB06KT 10SM SCT050 OVC080 11/06 A2968 RMK
 AO2 SLP052 60000 T01060056 10150 20106 51010 TSNO=

PATA 190652Z AUTO 01004KT 10SM BKN043 BKN055 BKN070 08/06 A2970
     RMK AO2 SLP058 T00830061 TSNO=

METAR PATA 190752Z AUTO 33004KT 10SM OVC080 08/06 A2971 RMK AO2
 SLP065 T00780061 TSNO=

METAR PATA 190852Z AUTO 28004KT 10SM OVC060 07/06 A2972 RMK AO2 SLP068
     T00720056 401500067 51016 TSNO=


NOAA's National Weather Service
Alaska Aviation Weather Unit
6930 Sand Lake Road
Anchorage, AK 99502-1845
Disclaimer
Credits
Glossary
Privacy Policy
About Us
Career Opportunities
Contact AAWU Internet Services Site last modified: April, 17th 2012